DLH905 EDDN-EGLL
Flight info
| Callsign | DLH905 |
|---|---|
| Flight time | N/A |
| Altitude | 36000 |
| Route | SULUS1C SULUS L604 BIGGE DCT AMSAN L980 RKN DCT ABNED L980 LOGAN |
| Aircraft | B738/M-SDE2E3FGHIRWXY/LB1 |
Departure
| Time | 2026-04-28 15:32 |
|---|---|
| Airport | Nuremberg Airport (EDDN) |
Arrival
| Time | N/A |
|---|---|
| Airport | London Heathrow Airport (EGLL) |
| Time | Latitude | Longitude | Altitude | Speed | Heading |
|---|---|---|---|---|---|
| 2026-04-28 15:14 | 49.49520 | 11.07791 | 1024 ft | 0 kts | 188° |
| 2026-04-28 15:23 | 49.49530 | 11.07793 | 1026 ft | 3 kts | 192° |
| 2026-04-28 15:23 | 49.49549 | 11.07801 | 1028 ft | 3 kts | 207° |
| 2026-04-28 15:23 | 49.49565 | 11.07818 | 1028 ft | 3 kts | 230° |
| 2026-04-28 15:24 | 49.49575 | 11.07843 | 1028 ft | 3 kts | 257° |
| 2026-04-28 15:24 | 49.49577 | 11.07868 | 1029 ft | 1 kts | 278° |
| 2026-04-28 15:24 | 49.49576 | 11.07871 | 1029 ft | 0 kts | 278° |
| 2026-04-28 15:28 | 49.49576 | 11.07870 | 1029 ft | 0 kts | 278° |
| 2026-04-28 15:28 | 49.49577 | 11.07864 | 1029 ft | 3 kts | 278° |
| 2026-04-28 15:28 | 49.49586 | 11.07798 | 1027 ft | 8 kts | 292° |
| 2026-04-28 15:29 | 49.49636 | 11.07770 | 1029 ft | 8 kts | 5° |
| 2026-04-28 15:29 | 49.49682 | 11.07732 | 1031 ft | 8 kts | 297° |
| 2026-04-28 15:29 | 49.49693 | 11.07645 | 1032 ft | 9 kts | 278° |
| 2026-04-28 15:29 | 49.49706 | 11.07521 | 1031 ft | 14 kts | 278° |
| 2026-04-28 15:30 | 49.49721 | 11.07367 | 1028 ft | 15 kts | 278° |
| 2026-04-28 15:30 | 49.49736 | 11.07216 | 1023 ft | 14 kts | 279° |
| 2026-04-28 15:30 | 49.49770 | 11.07086 | 1022 ft | 14 kts | 322° |
| 2026-04-28 15:30 | 49.49879 | 11.07019 | 1024 ft | 18 kts | 350° |
| 2026-04-28 15:31 | 49.49932 | 11.07149 | 1025 ft | 22 kts | 99° |
| 2026-04-28 15:31 | 49.49869 | 11.07797 | 1033 ft | 100 kts | 98° |
| 2026-04-28 15:31 | 49.49736 | 11.09196 | 1108 ft | 155 kts | 97° |
| 2026-04-28 15:31 | 49.49560 | 11.10949 | 1553 ft | 184 kts | 95° |
| 2026-04-28 15:32 | 49.49372 | 11.13103 | 1932 ft | 220 kts | 97° |
| 2026-04-28 15:32 | 49.49209 | 11.14720 | 2208 ft | 241 kts | 97° |
| 2026-04-28 15:32 | 49.49254 | 11.18192 | 2670 ft | 245 kts | 69° |
| 2026-04-28 15:32 | 49.50090 | 11.20471 | 3074 ft | 246 kts | 53° |
| 2026-04-28 15:33 | 49.51301 | 11.22346 | 3453 ft | 252 kts | 42° |
| 2026-04-28 15:33 | 49.52682 | 11.24009 | 3850 ft | 249 kts | 39° |
| 2026-04-28 15:33 | 49.54037 | 11.25604 | 4663 ft | 246 kts | 39° |
| 2026-04-28 15:33 | 49.55399 | 11.27230 | 5424 ft | 250 kts | 39° |
| 2026-04-28 15:34 | 49.56787 | 11.28905 | 6180 ft | 253 kts | 40° |
| 2026-04-28 15:34 | 49.58287 | 11.30340 | 6895 ft | 260 kts | 20° |
| 2026-04-28 15:34 | 49.60107 | 11.30641 | 7657 ft | 266 kts | 356° |
| 2026-04-28 15:34 | 49.61871 | 11.29842 | 8406 ft | 271 kts | 336° |
| 2026-04-28 15:35 | 49.63581 | 11.28466 | 8832 ft | 286 kts | 333° |
| 2026-04-28 15:35 | 49.67034 | 11.25502 | 9331 ft | 287 kts | 332° |
| 2026-04-28 15:36 | 49.67707 | 11.24924 | 9428 ft | 287 kts | 331° |
| 2026-04-28 15:36 | 49.69445 | 11.23432 | 9692 ft | 285 kts | 332° |
| 2026-04-28 15:37 | 49.71182 | 11.21952 | 9964 ft | 284 kts | 331° |
| 2026-04-28 15:37 | 49.72912 | 11.20481 | 10217 ft | 283 kts | 331° |
| 2026-04-28 15:37 | 49.74629 | 11.19025 | 10724 ft | 282 kts | 331° |
| 2026-04-28 15:37 | 49.75794 | 11.18039 | 11062 ft | 293 kts | 331° |
| 2026-04-28 15:38 | 49.78279 | 11.15932 | 11765 ft | 315 kts | 331° |
| 2026-04-28 15:38 | 49.80250 | 11.14259 | 12326 ft | 331 kts | 331° |
| 2026-04-28 15:38 | 49.82384 | 11.12449 | 12877 ft | 346 kts | 330° |
| 2026-04-28 15:38 | 49.89972 | 11.02294 | 14923 ft | 367 kts | 311° |
| 2026-04-28 15:39 | 49.96732 | 10.90315 | 16946 ft | 369 kts | 313° |
| 2026-04-28 15:39 | 49.99112 | 10.86486 | 17640 ft | 370 kts | 314° |
| 2026-04-28 15:39 | 50.00908 | 10.83615 | 18193 ft | 370 kts | 314° |
| 2026-04-28 15:39 | 50.02694 | 10.80738 | 18698 ft | 370 kts | 313° |
| 2026-04-28 15:40 | 50.03873 | 10.78826 | 19010 ft | 369 kts | 313° |
| 2026-04-28 15:40 | 50.05591 | 10.76026 | 19472 ft | 369 kts | 313° |
| 2026-04-28 15:40 | 50.07935 | 10.72198 | 20124 ft | 367 kts | 313° |
| 2026-04-28 15:40 | 50.09127 | 10.70255 | 20459 ft | 364 kts | 313° |
| 2026-04-28 15:41 | 50.11016 | 10.67835 | 20799 ft | 354 kts | 337° |
| 2026-04-28 15:41 | 50.13392 | 10.67008 | 20897 ft | 355 kts | 357° |
| 2026-04-28 15:41 | 50.15855 | 10.67802 | 20584 ft | 371 kts | 24° |
| 2026-04-28 15:41 | 50.17929 | 10.70262 | 20371 ft | 383 kts | 48° |
| 2026-04-28 15:42 | 50.18340 | 10.71099 | 20313 ft | 387 kts | 54° |
| 2026-04-28 15:42 | 50.18945 | 10.72803 | 20186 ft | 393 kts | 65° |
| 2026-04-28 15:42 | 50.19357 | 10.74854 | 20064 ft | 398 kts | 77° |
| 2026-04-28 15:42 | 50.19517 | 10.77011 | 19978 ft | 402 kts | 85° |
| 2026-04-28 15:43 | 50.19716 | 10.81063 | 19743 ft | 403 kts | 76° |
| 2026-04-28 15:43 | 50.20649 | 10.85103 | 19433 ft | 390 kts | 59° |
| 2026-04-28 15:43 | 50.22034 | 10.88664 | 19187 ft | 379 kts | 54° |
| 2026-04-28 15:43 | 50.23457 | 10.92093 | 18886 ft | 372 kts | 54° |
| 2026-04-28 15:44 | 50.24856 | 10.95439 | 18591 ft | 364 kts | 54° |
| 2026-04-28 15:44 | 50.26302 | 10.98659 | 18255 ft | 355 kts | 43° |
| 2026-04-28 15:44 | 50.28263 | 11.00842 | 17906 ft | 341 kts | 22° |
| 2026-04-28 15:44 | 50.30439 | 11.02184 | 17640 ft | 332 kts | 17° |
| 2026-04-28 15:45 | 50.32566 | 11.03400 | 17327 ft | 327 kts | 17° |
| 2026-04-28 15:45 | 50.34691 | 11.04611 | 16998 ft | 322 kts | 18° |
| 2026-04-28 15:45 | 50.36779 | 11.05803 | 16715 ft | 317 kts | 17° |
| 2026-04-28 15:45 | 50.38843 | 11.06990 | 16403 ft | 313 kts | 18° |
| 2026-04-28 15:46 | 50.40878 | 11.08170 | 16088 ft | 310 kts | 18° |
| 2026-04-28 15:46 | 50.42903 | 11.09353 | 15785 ft | 308 kts | 17° |
| 2026-04-28 15:46 | 50.44909 | 11.10529 | 15504 ft | 306 kts | 18° |
| 2026-04-28 15:46 | 50.50171 | 11.13623 | 14733 ft | 301 kts | 18° |
| 2026-04-28 15:47 | 50.52556 | 11.15023 | 14478 ft | 295 kts | 19° |
| 2026-04-28 15:47 | 50.54462 | 11.16142 | 14294 ft | 291 kts | 17° |
| 2026-04-28 15:47 | 50.56351 | 11.17253 | 14104 ft | 288 kts | 19° |
| 2026-04-28 15:47 | 50.58224 | 11.18374 | 13900 ft | 289 kts | 19° |
| 2026-04-28 15:48 | 50.60109 | 11.19538 | 13677 ft | 292 kts | 19° |
| 2026-04-28 15:48 | 50.62010 | 11.20713 | 13509 ft | 293 kts | 19° |
| 2026-04-28 15:48 | 50.63916 | 11.21880 | 13278 ft | 294 kts | 19° |
| 2026-04-28 15:48 | 50.65836 | 11.23050 | 13072 ft | 295 kts | 19° |
| 2026-04-28 15:49 | 50.67749 | 11.24211 | 12843 ft | 293 kts | 19° |
| 2026-04-28 15:49 | 50.74425 | 11.28305 | 12123 ft | 285 kts | 20° |
| 2026-04-28 15:49 | 50.76375 | 11.29495 | 11900 ft | 284 kts | 20° |
| 2026-04-28 15:49 | 50.78231 | 11.30647 | 11625 ft | 289 kts | 22° |
| 2026-04-28 15:50 | 50.80102 | 11.31823 | 11390 ft | 287 kts | 20° |
| 2026-04-28 15:50 | 50.81951 | 11.32936 | 11217 ft | 282 kts | 20° |
| 2026-04-28 15:50 | 50.83776 | 11.34028 | 11000 ft | 277 kts | 19° |
| 2026-04-28 15:50 | 50.85558 | 11.35098 | 10807 ft | 271 kts | 19° |
| 2026-04-28 15:51 | 50.87304 | 11.36154 | 10591 ft | 266 kts | 20° |
| 2026-04-28 15:51 | 50.89020 | 11.37201 | 10390 ft | 262 kts | 20° |
| 2026-04-28 15:51 | 50.90694 | 11.38235 | 10229 ft | 261 kts | 20° |
| 2026-04-28 15:51 | 50.92378 | 11.39277 | 10017 ft | 260 kts | 21° |
| 2026-04-28 15:52 | 50.94062 | 11.40310 | 9777 ft | 258 kts | 21° |
| 2026-04-28 15:52 | 50.95735 | 11.41336 | 9578 ft | 255 kts | 21° |
| 2026-04-28 15:52 | 50.97379 | 11.42348 | 9332 ft | 253 kts | 21° |